createdAt,value
2019-03-20T00:01:44.015Z,65.53
2019-03-20T00:04:08.403Z,65.56
2019-03-20T00:06:35.741Z,65.62
2019-03-20T00:09:01.892Z,65.87
2019-03-20T00:11:29.436Z,65.86
2019-03-20T00:13:55.730Z,66.36
2019-03-20T00:16:22.540Z,66.21
2019-03-20T00:18:49.060Z,65.82
2019-03-20T00:21:15.260Z,65.69
2019-03-20T00:23:41.726Z,65.62
2019-03-20T00:26:08.006Z,65.44
2019-03-20T00:28:34.391Z,65.43
2019-03-20T00:31:00.653Z,65.27
2019-03-20T00:33:27.019Z,65.14
2019-03-20T00:35:53.389Z,65.30
2019-03-20T00:38:19.770Z,65.16
2019-03-20T00:40:46.013Z,65.22
2019-03-20T00:43:12.222Z,65.26
2019-03-20T00:45:38.331Z,65.17
2019-03-20T00:48:04.628Z,65.10
2019-03-20T00:50:30.917Z,65.28
2019-03-20T00:52:57.210Z,65.12
2019-03-20T00:55:23.458Z,65.16
2019-03-20T00:57:49.752Z,65.20
2019-03-20T01:00:21.703Z,65.02
2019-03-20T01:02:48.036Z,64.88
2019-03-20T01:05:14.234Z,64.91
2019-03-20T01:07:40.665Z,64.93
2019-03-20T01:10:10.055Z,64.93
2019-03-20T01:12:36.528Z,65.10
2019-03-20T01:15:04.910Z,65.00
2019-03-20T01:17:31.403Z,65.09
2019-03-20T01:19:57.667Z,65.03
2019-03-20T01:22:24.180Z,65.02
2019-03-20T01:24:50.423Z,65.00
2019-03-20T01:27:16.668Z,65.15
2019-03-20T01:29:42.893Z,65.11
2019-03-20T01:32:09.025Z,65.22
2019-03-20T01:34:35.238Z,65.21
2019-03-20T01:37:01.342Z,65.47
2019-03-20T01:39:27.561Z,65.61
2019-03-20T01:41:53.678Z,65.89
2019-03-20T01:44:19.931Z,66.08
2019-03-20T01:46:46.036Z,66.21
2019-03-20T01:49:12.260Z,66.18
2019-03-20T01:51:38.416Z,66.34
2019-03-20T01:54:04.568Z,66.18
2019-03-20T01:56:30.790Z,66.32
2019-03-20T01:58:56.876Z,66.25
2019-03-20T02:01:23.109Z,66.50
2019-03-20T02:03:49.196Z,66.84
2019-03-20T02:06:15.410Z,67.10
2019-03-20T02:08:41.562Z,67.52
2019-03-20T02:11:07.724Z,67.89
2019-03-20T02:13:33.893Z,68.11
2019-03-20T02:16:00.306Z,68.34
2019-03-20T02:18:26.405Z,68.54
2019-03-20T02:20:53.779Z,68.81
2019-03-20T02:23:19.876Z,68.91
2019-03-20T02:25:46.178Z,68.89
2019-03-20T02:28:12.738Z,69.29
2019-03-20T02:30:39.059Z,68.98
2019-03-20T02:33:05.314Z,69.03
2019-03-20T02:35:31.538Z,69.15
2019-03-20T02:37:57.771Z,69.53
2019-03-20T02:40:24.025Z,69.60
2019-03-20T02:42:50.432Z,69.65
2019-03-20T02:45:16.766Z,69.75
2019-03-20T02:47:43.972Z,69.93
2019-03-20T02:50:11.294Z,69.82
2019-03-20T02:52:37.401Z,69.90
2019-03-20T02:55:06.748Z,70.25
2019-03-20T02:57:32.848Z,70.49
2019-03-20T02:59:59.046Z,70.57
2019-03-20T03:02:25.210Z,70.70
2019-03-20T03:04:51.505Z,70.96
2019-03-20T03:07:17.600Z,71.23
2019-03-20T03:09:43.837Z,71.38
2019-03-20T03:12:10.025Z,71.25
2019-03-20T03:14:36.196Z,71.29
2019-03-20T03:17:02.371Z,71.43
2019-03-20T03:19:28.527Z,71.60
2019-03-20T03:21:54.760Z,71.71
2019-03-20T03:24:20.916Z,71.94
2019-03-20T03:26:47.088Z,71.87
2019-03-20T03:29:13.365Z,71.77
2019-03-20T03:31:39.524Z,71.84
2019-03-20T03:34:05.893Z,71.85
2019-03-20T03:36:31.991Z,71.83
2019-03-20T03:38:58.235Z,71.98
2019-03-20T03:41:24.526Z,72.19
2019-03-20T03:43:51.080Z,72.34
2019-03-20T03:46:17.243Z,72.29
2019-03-20T03:48:43.636Z,72.28
2019-03-20T03:51:09.960Z,72.33
2019-03-20T03:53:36.241Z,72.42
2019-03-20T03:56:02.561Z,72.39
2019-03-20T03:58:28.709Z,72.39
2019-03-20T04:00:54.931Z,72.60
2019-03-20T04:03:21.139Z,72.59
2019-03-20T04:05:47.729Z,72.53
2019-03-20T04:08:13.891Z,72.51
2019-03-20T04:10:40.190Z,72.42
2019-03-20T04:13:06.345Z,72.45
2019-03-20T04:15:36.175Z,72.69
2019-03-20T04:18:00.789Z,72.91
2019-03-20T04:20:26.912Z,73.08
2019-03-20T04:22:53.142Z,73.18
2019-03-20T04:25:19.250Z,73.34
2019-03-20T04:27:45.478Z,73.53
2019-03-20T04:30:13.303Z,73.65
2019-03-20T04:32:39.646Z,74.19
2019-03-20T04:35:06.880Z,73.83
2019-03-20T04:37:33.425Z,74.24
2019-03-20T04:39:59.834Z,74.20
2019-03-20T04:42:26.356Z,74.12
2019-03-20T04:44:52.669Z,74.22
2019-03-20T04:47:19.060Z,74.18
2019-03-20T04:49:46.367Z,74.49
2019-03-20T04:52:12.541Z,74.38
2019-03-20T04:54:38.818Z,74.29
2019-03-20T04:57:05.104Z,74.43
2019-03-20T04:59:31.454Z,74.22
2019-03-20T05:01:57.944Z,74.10
2019-03-20T05:04:24.034Z,74.13
2019-03-20T05:06:58.733Z,74.10
2019-03-20T05:09:19.453Z,74.14
2019-03-20T05:11:45.670Z,74.26
2019-03-20T05:14:12.535Z,74.04
2019-03-20T05:16:38.891Z,73.93
2019-03-20T05:19:04.996Z,73.95
2019-03-20T05:21:31.256Z,74.04
2019-03-20T05:23:57.523Z,74.11
2019-03-20T05:26:23.790Z,74.13
2019-03-20T05:28:50.074Z,74.23
2019-03-20T05:31:16.533Z,73.98
2019-03-20T05:33:42.892Z,74.00
2019-03-20T05:36:09.139Z,74.17
2019-03-20T05:38:35.252Z,74.20
2019-03-20T05:41:01.479Z,74.06
2019-03-20T05:43:28.742Z,74.14
2019-03-20T05:45:54.963Z,74.12
2019-03-20T05:48:21.062Z,74.26
2019-03-20T05:50:47.396Z,74.29
2019-03-20T05:53:13.503Z,74.38
2019-03-20T05:55:39.837Z,74.31
2019-03-20T05:58:06.001Z,74.45
2019-03-20T06:00:34.225Z,74.79
2019-03-20T06:03:00.385Z,74.49
2019-03-20T06:05:26.672Z,74.39
2019-03-20T06:07:52.888Z,74.38
2019-03-20T06:10:19.005Z,74.35
2019-03-20T06:12:45.443Z,74.35
2019-03-20T06:15:13.051Z,74.34
2019-03-20T06:17:39.677Z,74.25
2019-03-20T06:20:08.300Z,74.24
2019-03-20T06:22:34.494Z,74.33
2019-03-20T06:25:00.596Z,74.13
2019-03-20T06:27:26.828Z,74.04
2019-03-20T06:29:52.958Z,74.09
2019-03-20T06:32:19.183Z,74.04
2019-03-20T06:34:45.331Z,74.08
2019-03-20T06:37:11.634Z,74.09
2019-03-20T06:39:37.820Z,73.93
2019-03-20T06:42:04.293Z,73.80
2019-03-20T06:44:30.446Z,73.37
2019-03-20T06:46:56.657Z,73.21
2019-03-20T06:49:22.756Z,72.80
2019-03-20T06:51:48.974Z,72.59
2019-03-20T06:54:15.191Z,72.63
2019-03-20T06:56:41.436Z,72.43
2019-03-20T06:59:23.516Z,71.92
2019-03-20T07:01:49.839Z,71.79
2019-03-20T07:04:19.789Z,71.28
2019-03-20T07:06:53.066Z,71.22
2019-03-20T07:09:38.263Z,70.78
2019-03-20T07:12:04.687Z,70.40
2019-03-20T07:14:30.901Z,70.19
2019-03-20T07:16:57.075Z,70.32
2019-03-20T07:19:23.224Z,69.82
2019-03-20T07:21:49.459Z,69.66
2019-03-20T07:24:15.551Z,69.27
2019-03-20T07:26:41.867Z,68.02
2019-03-20T07:29:08.030Z,68.46
2019-03-20T07:31:34.233Z,68.50
2019-03-20T07:34:00.338Z,68.32
2019-03-20T07:36:26.591Z,67.84
2019-03-20T07:38:52.676Z,67.89
2019-03-20T07:41:18.927Z,67.55
2019-03-20T07:43:45.001Z,67.23
2019-03-20T07:46:11.244Z,67.05
2019-03-20T07:48:37.603Z,67.37
2019-03-20T07:51:03.938Z,67.00
2019-03-20T07:53:30.128Z,66.69
2019-03-20T07:55:56.310Z,66.71
2019-03-20T07:58:22.514Z,66.81
2019-03-20T08:00:48.874Z,66.93
2019-03-20T08:03:14.986Z,66.21
2019-03-20T08:05:41.230Z,66.20
2019-03-20T08:08:07.899Z,66.08
2019-03-20T08:10:34.275Z,64.95
2019-03-20T08:13:00.523Z,64.96
2019-03-20T08:15:26.731Z,65.51
2019-03-20T08:17:52.992Z,65.36
2019-03-20T08:20:21.598Z,64.82
2019-03-20T08:22:47.801Z,63.96
2019-03-20T08:25:13.983Z,64.19
2019-03-20T08:27:40.157Z,63.53
2019-03-20T08:30:13.883Z,63.85
2019-03-20T08:32:40.165Z,63.57
2019-03-20T08:35:08.637Z,63.18
2019-03-20T08:37:34.800Z,62.90
2019-03-20T08:40:04.252Z,62.45
2019-03-20T08:42:30.492Z,61.71
2019-03-20T08:44:56.715Z,61.78
2019-03-20T08:47:22.923Z,61.79
2019-03-20T08:49:49.051Z,61.34
2019-03-20T08:52:15.257Z,59.72
2019-03-20T08:54:41.521Z,58.46
2019-03-20T08:57:07.728Z,57.94
2019-03-20T08:59:33.977Z,58.47
2019-03-20T09:02:00.235Z,58.07
2019-03-20T09:04:26.403Z,56.99
2019-03-20T09:06:52.574Z,56.72
2019-03-20T09:09:19.123Z,56.40
2019-03-20T09:11:45.285Z,56.42
2019-03-20T09:14:11.467Z,56.06
2019-03-20T09:16:37.637Z,54.44
2019-03-20T09:19:03.859Z,53.73
2019-03-20T09:21:30.971Z,54.10
2019-03-20T09:23:57.215Z,53.00
2019-03-20T09:26:23.331Z,52.44
2019-03-20T09:28:49.943Z,51.66
2019-03-20T09:31:16.038Z,51.30
2019-03-20T09:33:42.280Z,51.44
2019-03-20T09:36:08.469Z,50.57
2019-03-20T09:38:42.905Z,50.18
2019-03-20T09:41:02.809Z,49.34
2019-03-20T09:43:29.013Z,49.24
2019-03-20T09:45:57.010Z,49.27
2019-03-20T09:48:23.257Z,49.17
2019-03-20T09:50:49.421Z,47.31
2019-03-20T09:53:15.593Z,46.50
2019-03-20T09:55:41.779Z,46.90
2019-03-20T09:58:11.874Z,46.71
2019-03-20T10:00:36.078Z,46.00
2019-03-20T10:03:02.263Z,45.24
2019-03-20T10:05:28.395Z,45.78
2019-03-20T10:07:54.622Z,43.03
2019-03-20T10:10:25.740Z,44.12
2019-03-20T10:12:51.979Z,44.31
2019-03-20T10:15:19.487Z,42.80
2019-03-20T10:17:46.076Z,40.77
2019-03-20T10:20:17.800Z,41.55
2019-03-20T10:22:44.206Z,42.44
2019-03-20T10:25:10.750Z,42.84
2019-03-20T10:27:36.828Z,42.38
2019-03-20T10:30:15.995Z,41.27
2019-03-20T10:32:42.202Z,41.14
2019-03-20T10:35:08.824Z,39.51
2019-03-20T10:37:36.044Z,39.33
2019-03-20T10:40:05.613Z,38.72
2019-03-20T10:42:31.714Z,39.12
2019-03-20T10:44:57.917Z,38.61
2019-03-20T10:47:24.104Z,38.47
2019-03-20T10:49:50.407Z,36.75
2019-03-20T10:52:16.685Z,35.64
2019-03-20T10:54:43.046Z,34.73
2019-03-20T10:57:10.349Z,34.36
2019-03-20T10:59:36.519Z,32.46
2019-03-20T11:02:02.996Z,31.79
2019-03-20T11:04:29.284Z,30.05
2019-03-20T11:06:55.441Z,30.05
2019-03-20T11:09:21.628Z,29.17
2019-03-20T11:11:47.800Z,28.73
2019-03-20T11:14:13.972Z,28.56
2019-03-20T11:16:40.349Z,27.66
2019-03-20T11:19:06.638Z,28.06
2019-03-20T11:21:32.913Z,26.34
2019-03-20T11:23:59.220Z,26.90
2019-03-20T11:26:25.449Z,25.99
2019-03-20T11:28:51.667Z,26.15
2019-03-20T11:31:17.833Z,25.60
2019-03-20T11:33:43.996Z,25.42
2019-03-20T11:36:10.314Z,24.12
2019-03-20T11:38:36.435Z,24.22
2019-03-20T11:41:02.645Z,23.36
2019-03-20T11:43:28.782Z,22.73
2019-03-20T11:45:55.116Z,23.18
2019-03-20T11:48:21.278Z,22.36
2019-03-20T11:50:47.516Z,22.98
2019-03-20T11:53:13.632Z,21.98
2019-03-20T11:55:39.889Z,21.82
2019-03-20T11:58:06.370Z,22.14
2019-03-20T12:00:32.999Z,20.70
2019-03-20T12:02:59.281Z,21.23
2019-03-20T12:05:25.687Z,20.40
2019-03-20T12:07:51.900Z,19.01
2019-03-20T12:10:25.651Z,20.55
2019-03-20T12:12:52.071Z,20.61
2019-03-20T12:15:18.439Z,19.81
2019-03-20T12:17:44.751Z,19.87
2019-03-20T12:20:14.041Z,19.85
2019-03-20T12:22:40.378Z,19.91
2019-03-20T12:25:10.294Z,19.29
2019-03-20T12:27:36.504Z,19.55
2019-03-20T12:30:06.459Z,19.39
2019-03-20T12:32:32.691Z,18.94
2019-03-20T12:34:58.990Z,19.51
2019-03-20T12:37:25.567Z,17.89
2019-03-20T12:39:53.413Z,18.73
2019-03-20T12:42:19.886Z,17.65
2019-03-20T12:44:46.102Z,17.38
2019-03-20T12:47:12.277Z,17.51
2019-03-20T12:49:38.548Z,17.78
2019-03-20T12:52:04.770Z,17.84
2019-03-20T12:54:30.975Z,17.84
2019-03-20T12:56:57.339Z,17.47
2019-03-20T12:59:23.454Z,17.98
2019-03-20T13:01:49.668Z,18.18
2019-03-20T13:04:15.775Z,18.24
2019-03-20T13:06:42.013Z,17.00
2019-03-20T13:09:08.126Z,17.21
2019-03-20T13:11:34.327Z,17.46
2019-03-20T13:14:00.450Z,16.66
2019-03-20T13:16:26.797Z,16.57
2019-03-20T13:18:53.013Z,16.44
2019-03-20T13:21:19.482Z,16.54
2019-03-20T13:23:45.749Z,15.71
2019-03-20T13:26:11.919Z,15.94
2019-03-20T13:28:38.147Z,16.08
2019-03-20T13:31:13.539Z,15.95
2019-03-20T13:33:39.758Z,16.08
2019-03-20T13:36:06.081Z,15.79
2019-03-20T13:38:32.312Z,15.85
2019-03-20T13:40:58.433Z,16.31
2019-03-20T13:43:24.802Z,16.18
2019-03-20T13:45:51.018Z,15.85
2019-03-20T13:48:17.207Z,15.77
2019-03-20T13:50:43.475Z,15.76
2019-03-20T13:53:09.750Z,15.66
2019-03-20T13:55:35.856Z,15.82
2019-03-20T13:58:03.285Z,15.98
2019-03-20T14:00:29.388Z,16.08
2019-03-20T14:02:55.630Z,17.00
2019-03-20T14:05:22.103Z,16.99
2019-03-20T14:07:48.275Z,17.04
2019-03-20T14:10:25.471Z,17.78
2019-03-20T14:12:51.295Z,18.29
2019-03-20T14:15:18.251Z,18.01
2019-03-20T14:17:44.819Z,19.05
2019-03-20T14:20:14.075Z,19.02
2019-03-20T14:22:40.410Z,19.73
2019-03-20T14:25:08.937Z,20.43
2019-03-20T14:27:35.212Z,20.23
2019-03-20T14:30:01.417Z,19.73
2019-03-20T14:32:27.587Z,20.02
2019-03-20T14:34:53.812Z,20.18
2019-03-20T14:37:19.970Z,21.15
2019-03-20T14:39:46.253Z,20.73
2019-03-20T14:42:12.457Z,20.55
2019-03-20T14:44:38.569Z,21.03
2019-03-20T14:47:04.807Z,20.72
2019-03-20T14:49:30.918Z,20.86
2019-03-20T14:51:57.198Z,20.79
2019-03-20T14:54:23.494Z,20.73
2019-03-20T14:56:49.771Z,20.27
2019-03-20T14:59:15.995Z,19.96
2019-03-20T15:01:42.173Z,20.15
2019-03-20T15:04:08.559Z,20.31
2019-03-20T15:06:34.772Z,20.28
2019-03-20T15:09:00.945Z,21.22
2019-03-20T15:11:27.275Z,21.33
2019-03-20T15:13:53.451Z,21.84
2019-03-20T15:16:19.732Z,22.19
2019-03-20T15:18:45.949Z,22.52
2019-03-20T15:21:12.150Z,23.40
2019-03-20T15:23:38.456Z,23.38
2019-03-20T15:26:04.763Z,23.69
2019-03-20T15:28:31.024Z,23.08
2019-03-20T15:30:57.240Z,24.13
2019-03-20T15:33:23.409Z,23.81
2019-03-20T15:35:49.747Z,24.37
2019-03-20T15:38:16.067Z,24.92
2019-03-20T15:40:42.295Z,25.78
2019-03-20T15:43:09.577Z,26.32
2019-03-20T15:45:35.883Z,26.84
2019-03-20T15:48:02.060Z,27.71
2019-03-20T15:50:28.444Z,27.99
2019-03-20T15:52:55.123Z,28.09
2019-03-20T15:55:36.552Z,28.95
2019-03-20T15:58:04.141Z,29.05
2019-03-20T16:00:30.511Z,29.87
2019-03-20T16:03:06.004Z,30.06
2019-03-20T16:05:32.377Z,30.35
2019-03-20T16:07:58.566Z,31.21
2019-03-20T16:10:25.030Z,31.43
2019-03-20T16:12:51.201Z,31.68
2019-03-20T16:15:20.636Z,31.51
2019-03-20T16:17:47.970Z,31.67
2019-03-20T16:20:15.897Z,32.05
2019-03-20T16:22:42.113Z,32.44
2019-03-20T16:25:11.719Z,32.91
2019-03-20T16:27:39.422Z,32.70
2019-03-20T16:30:17.992Z,32.59
2019-03-20T16:32:45.700Z,32.67
2019-03-20T16:35:12.181Z,32.87
2019-03-20T16:37:38.526Z,32.79
2019-03-20T16:40:09.656Z,33.10
2019-03-20T16:42:35.858Z,33.03
2019-03-20T16:45:05.280Z,33.26
2019-03-20T16:47:31.551Z,33.42
2019-03-20T16:49:57.796Z,33.52
2019-03-20T16:52:23.989Z,33.69
2019-03-20T16:54:50.753Z,33.92
2019-03-20T16:57:16.855Z,34.26
2019-03-20T16:59:43.137Z,34.20
2019-03-20T17:02:09.279Z,34.43
2019-03-20T17:04:35.500Z,34.76
2019-03-20T17:07:01.602Z,34.73
2019-03-20T17:09:28.216Z,35.60
2019-03-20T17:11:55.595Z,36.24
2019-03-20T17:14:21.823Z,36.98
2019-03-20T17:16:47.996Z,39.95
2019-03-20T17:19:15.012Z,41.98
2019-03-20T17:21:41.802Z,42.94
2019-03-20T17:24:07.963Z,44.09
2019-03-20T17:26:34.185Z,44.87
2019-03-20T17:29:08.646Z,45.25
2019-03-20T17:31:28.361Z,45.88
2019-03-20T17:33:54.526Z,46.67
2019-03-20T17:36:20.700Z,46.95
2019-03-20T17:38:46.864Z,47.29
2019-03-20T17:41:13.154Z,47.51
2019-03-20T17:43:39.408Z,47.63
2019-03-20T17:46:06.010Z,47.83
2019-03-20T17:48:32.125Z,47.74
2019-03-20T17:50:58.488Z,48.11
2019-03-20T17:53:24.600Z,48.55
2019-03-20T17:55:51.157Z,48.87
2019-03-20T17:58:17.368Z,49.21
2019-03-20T18:00:45.485Z,48.75
2019-03-20T18:03:11.927Z,48.58
2019-03-20T18:05:38.259Z,49.00
2019-03-20T18:08:05.892Z,49.57
2019-03-20T18:10:33.254Z,49.87
2019-03-20T18:12:59.573Z,49.96
2019-03-20T18:15:25.977Z,50.16
2019-03-20T18:17:52.181Z,50.35
2019-03-20T18:20:19.280Z,50.42
2019-03-20T18:22:45.597Z,50.41
2019-03-20T18:25:12.562Z,50.53
2019-03-20T18:27:38.982Z,50.68
2019-03-20T18:30:22.985Z,51.27
2019-03-20T18:32:49.808Z,51.68
2019-03-20T18:35:16.672Z,52.22
2019-03-20T18:37:43.032Z,52.50
2019-03-20T18:40:15.592Z,52.45
2019-03-20T18:42:41.838Z,52.73
2019-03-20T18:45:11.179Z,53.19
2019-03-20T18:47:37.502Z,53.81
2019-03-20T18:50:06.293Z,53.82
2019-03-20T18:52:33.038Z,53.68
2019-03-20T18:54:59.426Z,53.46
2019-03-20T18:57:26.020Z,53.78
2019-03-20T18:59:52.448Z,54.08
2019-03-20T19:02:18.710Z,54.28
2019-03-20T19:04:46.085Z,54.46
2019-03-20T19:07:12.511Z,54.84
2019-03-20T19:09:38.903Z,56.25
2019-03-20T19:12:08.788Z,56.53
2019-03-20T19:14:33.413Z,56.72
2019-03-20T19:16:59.621Z,56.86
2019-03-20T19:19:26.067Z,57.09
2019-03-20T19:21:52.185Z,57.48
2019-03-20T19:24:18.407Z,57.57
2019-03-20T19:26:44.716Z,57.13
2019-03-20T19:29:10.985Z,56.43
2019-03-20T19:31:37.268Z,55.89
2019-03-20T19:34:03.620Z,55.66
2019-03-20T19:36:29.850Z,55.41
2019-03-20T19:38:57.287Z,55.25
2019-03-20T19:41:23.407Z,55.16
2019-03-20T19:43:49.762Z,55.22
2019-03-20T19:46:16.011Z,55.30
2019-03-20T19:48:42.753Z,55.25
2019-03-20T19:51:09.058Z,54.98
2019-03-20T19:53:35.287Z,54.99
2019-03-20T19:56:02.775Z,54.87
2019-03-20T19:58:28.988Z,54.54
2019-03-20T20:00:55.303Z,55.03
2019-03-20T20:03:21.599Z,54.73
2019-03-20T20:05:47.898Z,54.86
2019-03-20T20:08:14.128Z,54.92
2019-03-20T20:10:40.344Z,54.65
2019-03-20T20:13:06.682Z,54.60
2019-03-20T20:15:33.967Z,54.71
2019-03-20T20:18:00.290Z,54.87
2019-03-20T20:20:29.246Z,54.62
2019-03-20T20:22:56.477Z,54.55
2019-03-20T20:25:22.826Z,54.84
2019-03-20T20:27:49.021Z,54.86
2019-03-20T20:30:17.660Z,54.86
2019-03-20T20:32:44.044Z,55.24
2019-03-20T20:35:12.081Z,54.86
2019-03-20T20:37:38.639Z,55.15
2019-03-20T20:40:08.169Z,54.84
2019-03-20T20:42:42.961Z,54.96
2019-03-20T20:45:05.362Z,54.58
2019-03-20T20:47:31.599Z,54.46
2019-03-20T20:49:57.782Z,54.56
2019-03-20T20:52:25.043Z,54.47
2019-03-20T20:54:51.363Z,54.27
2019-03-20T20:57:17.741Z,54.18
2019-03-20T20:59:44.040Z,54.22
2019-03-20T21:02:10.242Z,53.94
2019-03-20T21:04:36.515Z,54.04
2019-03-20T21:07:03.087Z,54.08
2019-03-20T21:09:29.404Z,54.40
2019-03-20T21:11:55.513Z,54.71
2019-03-20T21:14:21.770Z,54.74
2019-03-20T21:16:47.965Z,55.20
2019-03-20T21:19:20.617Z,55.32
2019-03-20T21:22:07.394Z,55.58
2019-03-20T21:24:33.587Z,55.43
2019-03-20T21:27:06.628Z,55.50
2019-03-20T21:30:10.300Z,55.59
2019-03-20T21:32:42.959Z,55.83
2019-03-20T21:35:46.711Z,56.17
2019-03-20T21:38:13.695Z,56.39
2019-03-20T21:40:43.654Z,56.79
2019-03-20T21:43:29.400Z,56.88
2019-03-20T21:46:19.471Z,57.19
2019-03-20T21:48:45.585Z,57.51
2019-03-20T21:51:13.108Z,57.24
2019-03-20T21:53:59.671Z,57.11
2019-03-20T21:56:35.460Z,57.08
2019-03-20T21:59:28.362Z,56.96
2019-03-20T22:02:20.698Z,57.05
2019-03-20T22:04:46.969Z,57.02
2019-03-20T22:07:13.097Z,57.20
2019-03-20T22:09:43.199Z,57.25
2019-03-20T22:12:16.374Z,57.70
2019-03-20T22:14:46.042Z,57.41
2019-03-20T22:17:28.519Z,57.72
2019-03-20T22:20:07.487Z,57.76
2019-03-20T22:22:52.261Z,57.34
2019-03-20T22:25:41.778Z,57.79
2019-03-20T22:28:45.653Z,57.79
2019-03-20T22:31:11.905Z,57.72
2019-03-20T22:34:15.523Z,57.73
2019-03-20T22:36:41.860Z,57.39
2019-03-20T22:39:11.778Z,57.09
2019-03-20T22:41:41.729Z,57.36
2019-03-20T22:44:07.909Z,57.62
2019-03-20T22:47:09.971Z,57.34
2019-03-20T22:49:45.906Z,57.10
2019-03-20T22:52:15.958Z,57.46
2019-03-20T22:55:12.127Z,57.22
2019-03-20T22:57:50.813Z,57.27
2019-03-20T23:00:16.927Z,57.10
2019-03-20T23:03:00.940Z,56.94
2019-03-20T23:05:27.032Z,56.70
2019-03-20T23:07:53.263Z,56.39
2019-03-20T23:10:19.435Z,56.18
2019-03-20T23:12:45.635Z,55.87
2019-03-20T23:15:14.793Z,55.82
2019-03-20T23:17:40.982Z,55.63
2019-03-20T23:20:10.950Z,55.65
2019-03-20T23:22:37.127Z,55.80
2019-03-20T23:25:06.772Z,55.58
2019-03-20T23:27:34.570Z,55.78
2019-03-20T23:30:01.560Z,55.83
2019-03-20T23:32:27.820Z,55.72
2019-03-20T23:34:53.987Z,55.64
2019-03-20T23:37:20.152Z,55.59
2019-03-20T23:39:47.291Z,55.65
2019-03-20T23:42:13.583Z,55.60
2019-03-20T23:44:39.779Z,55.58
2019-03-20T23:47:05.997Z,55.63
2019-03-20T23:49:32.102Z,55.84
2019-03-20T23:51:58.340Z,56.00
2019-03-20T23:54:34.132Z,55.85
2019-03-20T23:57:00.427Z,55.97
2019-03-20T23:59:26.790Z,56.13
